createdAt,value
2023-04-02T00:00:29.767Z,3.33
2023-04-02T00:02:34.158Z,3.37
2023-04-02T00:04:39.474Z,3.00
2023-04-02T00:06:45.597Z,2.80
2023-04-02T00:08:48.787Z,3.10
2023-04-02T00:10:54.006Z,2.93
2023-04-02T00:13:02.096Z,2.83
2023-04-02T00:15:05.271Z,2.90
2023-04-02T00:17:08.099Z,3.00
2023-04-02T00:19:18.178Z,3.07
2023-04-02T00:21:25.518Z,2.53
2023-04-02T00:23:29.675Z,2.47
2023-04-02T00:25:42.648Z,2.63
2023-04-02T00:27:45.517Z,2.70
2023-04-02T00:29:49.854Z,2.83
2023-04-02T00:31:55.434Z,2.53
2023-04-02T00:34:00.175Z,3.10
2023-04-02T00:36:08.833Z,3.17
2023-04-02T00:38:22.080Z,4.70
2023-04-02T00:40:27.447Z,5.67
2023-04-02T00:42:32.019Z,6.03
2023-04-02T00:44:38.597Z,7.00
2023-04-02T00:46:48.343Z,7.13
2023-04-02T00:48:55.320Z,8.63
2023-04-02T00:51:01.110Z,8.97
2023-04-02T00:53:11.479Z,9.43
2023-04-02T00:55:20.138Z,8.73
2023-04-02T00:57:25.805Z,9.70
2023-04-02T00:59:31.589Z,9.80
2023-04-02T01:01:42.537Z,8.97
2023-04-02T01:03:59.094Z,9.33
2023-04-02T01:06:10.705Z,8.40
2023-04-02T01:08:20.632Z,9.90
2023-04-02T01:10:45.338Z,8.93
2023-04-02T01:12:58.412Z,10.27
2023-04-02T01:15:09.795Z,10.23
2023-04-02T01:17:30.372Z,10.90
2023-04-02T01:20:01.487Z,11.30
2023-04-02T01:22:08.222Z,12.00
2023-04-02T01:24:13.723Z,12.33
2023-04-02T01:26:27.991Z,12.47
2023-04-02T01:28:38.661Z,12.07
2023-04-02T01:30:49.710Z,11.93
2023-04-02T01:32:54.729Z,13.57
2023-04-02T01:34:58.761Z,13.50
2023-04-02T01:37:22.198Z,13.17
2023-04-02T01:39:39.806Z,13.83
2023-04-02T01:41:47.880Z,15.00
2023-04-02T01:43:57.172Z,16.23
2023-04-02T01:46:06.266Z,15.97
2023-04-02T01:48:16.663Z,16.23
2023-04-02T01:50:26.942Z,16.73
2023-04-02T01:52:39.192Z,17.37
2023-04-02T01:54:42.838Z,17.70
2023-04-02T01:56:47.273Z,18.13
2023-04-02T01:58:50.718Z,18.60
2023-04-02T02:00:58.136Z,19.67
2023-04-02T02:03:03.344Z,18.10
2023-04-02T02:05:07.332Z,20.10
2023-04-02T02:07:15.759Z,19.20
2023-04-02T02:09:23.036Z,20.93
2023-04-02T02:11:28.374Z,19.97
2023-04-02T02:13:32.419Z,20.00
2023-04-02T02:15:37.507Z,21.73
2023-04-02T02:17:40.517Z,22.40
2023-04-02T02:19:47.996Z,21.03
2023-04-02T02:21:53.255Z,20.47
2023-04-02T02:23:57.177Z,21.33
2023-04-02T02:26:00.423Z,22.17
2023-04-02T02:28:08.670Z,22.07
2023-04-02T02:30:16.674Z,22.93
2023-04-02T02:32:22.238Z,23.53
2023-04-02T02:34:32.418Z,23.87
2023-04-02T02:36:40.886Z,24.67
2023-04-02T02:38:50.595Z,24.23
2023-04-02T02:40:57.668Z,25.27
2023-04-02T02:43:04.851Z,23.37
2023-04-02T02:45:14.194Z,26.43
2023-04-02T02:47:20.513Z,24.17
2023-04-02T02:49:28.332Z,26.43
2023-04-02T02:51:45.206Z,26.90
2023-04-02T02:53:54.759Z,26.83
2023-04-02T02:56:01.488Z,25.53
2023-04-02T02:58:09.579Z,26.37
2023-04-02T03:00:15.881Z,26.80
2023-04-02T03:02:19.226Z,27.20
2023-04-02T03:04:24.025Z,28.77
2023-04-02T03:06:27.364Z,31.40
2023-04-02T03:08:36.409Z,29.57
2023-04-02T03:10:46.498Z,29.90
2023-04-02T03:12:55.444Z,29.90
2023-04-02T03:15:04.246Z,30.07
2023-04-02T03:17:15.205Z,28.63
2023-04-02T03:19:31.128Z,29.43
2023-04-02T03:21:41.575Z,30.30
2023-04-02T03:23:49.981Z,28.67
2023-04-02T03:25:59.823Z,26.73
2023-04-02T03:28:06.272Z,29.23
2023-04-02T03:30:27.735Z,26.37
2023-04-02T03:32:33.840Z,24.57
2023-04-02T03:34:42.463Z,24.50
2023-04-02T03:36:57.794Z,24.67
2023-04-02T03:39:13.013Z,24.27
2023-04-02T03:41:21.047Z,23.03
2023-04-02T03:43:27.013Z,21.50
2023-04-02T03:45:34.646Z,23.27
2023-04-02T03:47:43.521Z,23.03
2023-04-02T03:49:54.527Z,24.67
2023-04-02T03:52:03.473Z,23.40
2023-04-02T03:54:15.962Z,25.50
2023-04-02T03:56:29.160Z,24.73
2023-04-02T03:58:39.098Z,23.57
2023-04-02T04:00:48.234Z,25.63
2023-04-02T04:02:53.778Z,25.27
2023-04-02T04:04:57.757Z,22.40
2023-04-02T04:07:02.223Z,23.33
2023-04-02T04:09:11.319Z,24.27
2023-04-02T04:11:17.875Z,24.40
2023-04-02T04:13:29.956Z,23.37
2023-04-02T04:15:36.025Z,23.40
2023-04-02T04:17:51.298Z,23.60
2023-04-02T04:19:59.686Z,22.27
2023-04-02T04:22:18.812Z,20.30
2023-04-02T04:24:25.826Z,21.47
2023-04-02T04:26:39.414Z,19.77
2023-04-02T04:28:50.288Z,19.70
2023-04-02T04:30:59.985Z,20.20
2023-04-02T04:33:15.285Z,20.23
2023-04-02T04:35:26.036Z,19.87
2023-04-02T04:37:35.133Z,18.27
2023-04-02T04:39:44.051Z,18.47
2023-04-02T04:41:48.970Z,18.67
2023-04-02T04:43:56.232Z,15.97
2023-04-02T04:46:04.358Z,15.77
2023-04-02T04:48:14.350Z,15.57
2023-04-02T04:50:22.667Z,13.67
2023-04-02T04:52:28.910Z,14.23
2023-04-02T04:54:31.824Z,16.17
2023-04-02T04:56:36.067Z,16.20
2023-04-02T04:58:46.821Z,15.60
2023-04-02T05:00:59.568Z,13.97
2023-04-02T05:03:13.282Z,12.50
2023-04-02T05:05:20.291Z,9.60
2023-04-02T05:07:30.687Z,7.33
2023-04-02T05:09:37.690Z,5.93
2023-04-02T05:11:45.949Z,2.57
2023-04-02T05:13:52.734Z,1.80
2023-04-02T05:16:06.129Z,1.70
2023-04-02T05:18:21.850Z,1.20
2023-04-02T05:20:30.512Z,1.37
2023-04-02T05:22:41.384Z,1.40
2023-04-02T05:24:53.674Z,1.20
2023-04-02T05:27:03.365Z,1.30
2023-04-02T05:29:12.925Z,1.00
2023-04-02T05:31:19.925Z,1.10
2023-04-02T05:33:25.622Z,1.17
2023-04-02T05:35:33.718Z,1.30
2023-04-02T05:37:41.177Z,1.47
2023-04-02T05:39:48.536Z,1.33
2023-04-02T05:42:02.225Z,1.20
2023-04-02T05:44:10.262Z,1.40
2023-04-02T05:46:18.690Z,1.40
2023-04-02T05:48:26.712Z,1.20
2023-04-02T05:50:36.935Z,1.30
2023-04-02T05:52:47.069Z,1.30
2023-04-02T05:54:54.274Z,1.40
2023-04-02T05:57:04.579Z,1.20
2023-04-02T05:59:12.598Z,1.30
2023-04-02T06:01:23.497Z,1.50
2023-04-02T06:03:32.494Z,1.40
2023-04-02T06:05:39.240Z,1.37
2023-04-02T06:07:46.805Z,1.50
2023-04-02T06:09:54.199Z,1.50
2023-04-02T06:12:09.288Z,1.30
2023-04-02T06:14:13.766Z,1.60
2023-04-02T06:16:17.908Z,1.67
2023-04-02T06:18:24.329Z,1.40
2023-04-02T06:20:27.619Z,1.27
2023-04-02T06:22:35.967Z,1.50
2023-04-02T06:24:41.289Z,1.43
2023-04-02T06:26:47.278Z,1.37
2023-04-02T06:28:56.982Z,1.27
2023-04-02T06:31:07.433Z,1.00
2023-04-02T06:33:13.643Z,1.13
2023-04-02T06:35:17.274Z,1.20
2023-04-02T06:37:25.629Z,1.00
2023-04-02T06:39:29.061Z,1.00
2023-04-02T06:41:32.065Z,0.73
2023-04-02T06:43:40.540Z,0.80
2023-04-02T06:45:50.734Z,1.23
2023-04-02T06:47:56.197Z,1.07
2023-04-02T06:50:05.668Z,1.10
2023-04-02T06:52:17.940Z,1.00
2023-04-02T06:54:21.700Z,1.30
2023-04-02T06:56:38.974Z,1.20
2023-04-02T06:58:42.289Z,1.20
2023-04-02T07:00:47.911Z,1.37
2023-04-02T07:02:51.675Z,1.20
2023-04-02T07:05:01.370Z,1.07
2023-04-02T07:07:04.266Z,1.43
2023-04-02T07:09:08.012Z,1.30
2023-04-02T07:11:13.766Z,1.40
2023-04-02T07:13:18.605Z,1.37
2023-04-02T07:15:26.550Z,1.50
2023-04-02T07:17:33.742Z,1.60
2023-04-02T07:19:40.014Z,1.87
2023-04-02T07:21:44.997Z,1.57
2023-04-02T07:23:48.169Z,1.60
2023-04-02T07:25:52.671Z,1.70
2023-04-02T07:27:56.305Z,1.90
2023-04-02T07:30:14.761Z,1.90
2023-04-02T07:32:20.900Z,2.13
2023-04-02T07:34:25.922Z,1.87
2023-04-02T07:36:30.531Z,2.00
2023-04-02T07:38:33.546Z,1.90
2023-04-02T07:40:36.798Z,1.90
2023-04-02T07:42:39.645Z,1.97
2023-04-02T07:44:42.616Z,2.03
2023-04-02T07:46:45.903Z,2.27
2023-04-02T07:48:49.272Z,2.20
2023-04-02T07:50:53.790Z,2.27
2023-04-02T07:52:56.987Z,2.30
2023-04-02T07:54:59.864Z,2.40
2023-04-02T07:57:03.062Z,2.20
2023-04-02T07:59:06.798Z,2.57
2023-04-02T08:01:18.864Z,2.67
2023-04-02T08:03:31.378Z,2.43
2023-04-02T08:05:34.958Z,2.50
2023-04-02T08:07:42.892Z,3.00
2023-04-02T08:09:45.828Z,2.87
2023-04-02T08:11:57.067Z,2.90
2023-04-02T08:14:00.194Z,2.80
2023-04-02T08:16:04.598Z,2.93
2023-04-02T08:18:07.694Z,3.10
2023-04-02T08:20:18.334Z,2.50
2023-04-02T08:22:21.337Z,2.87
2023-04-02T08:24:26.284Z,3.17
2023-04-02T08:26:32.163Z,2.93
2023-04-02T08:28:38.280Z,3.20
2023-04-02T08:30:41.865Z,3.23
2023-04-02T08:32:44.969Z,3.10
2023-04-02T08:34:48.125Z,2.97
2023-04-02T08:36:57.794Z,3.27
2023-04-02T08:39:00.964Z,3.10
2023-04-02T08:41:06.263Z,3.20
2023-04-02T08:43:23.558Z,3.07
2023-04-02T08:45:38.644Z,3.33
2023-04-02T08:47:44.275Z,3.10
2023-04-02T08:49:52.442Z,3.20
2023-04-02T08:51:55.515Z,2.70
2023-04-02T08:54:03.352Z,3.13
2023-04-02T08:56:17.751Z,3.20
2023-04-02T08:58:30.595Z,3.40
2023-04-02T09:00:38.045Z,3.00
2023-04-02T09:02:45.938Z,2.90
2023-04-02T09:04:49.221Z,3.10
2023-04-02T09:06:55.711Z,3.20
2023-04-02T09:09:00.259Z,3.00
2023-04-02T09:11:10.304Z,3.20
2023-04-02T09:13:18.992Z,3.27
2023-04-02T09:15:33.917Z,2.83
2023-04-02T09:17:46.735Z,2.57
2023-04-02T09:19:59.771Z,2.90
2023-04-02T09:22:08.878Z,2.80
2023-04-02T09:24:13.485Z,2.67
2023-04-02T09:26:23.511Z,2.67
2023-04-02T09:28:27.725Z,1.93
2023-04-02T09:30:43.694Z,2.30
2023-04-02T09:32:50.328Z,2.77
2023-04-02T09:35:24.701Z,2.40
2023-04-02T09:37:29.530Z,2.60
2023-04-02T09:39:32.416Z,2.37
2023-04-02T09:41:37.497Z,2.40
2023-04-02T09:43:40.917Z,2.70
2023-04-02T09:45:45.007Z,2.13
2023-04-02T09:47:48.192Z,2.20
2023-04-02T09:49:52.548Z,2.27
2023-04-02T09:52:29.037Z,1.97
2023-04-02T09:54:31.895Z,2.40
2023-04-02T09:56:37.201Z,2.37
2023-04-02T09:58:40.106Z,2.07
2023-04-02T10:00:52.210Z,2.13
2023-04-02T10:03:04.729Z,1.90
2023-04-02T10:05:30.135Z,1.80
2023-04-02T10:07:45.964Z,2.00
2023-04-02T10:09:59.560Z,2.00
2023-04-02T10:12:07.025Z,2.13
2023-04-02T10:14:16.497Z,2.20
2023-04-02T10:16:27.020Z,2.40
2023-04-02T10:18:40.460Z,2.57
2023-04-02T10:20:51.330Z,2.50
2023-04-02T10:22:54.518Z,2.20
2023-04-02T10:24:59.649Z,2.07
2023-04-02T10:27:17.376Z,2.00
2023-04-02T10:29:45.583Z,2.00
2023-04-02T10:34:57.530Z,1.83
2023-04-02T10:37:09.571Z,1.90
2023-04-02T10:39:20.451Z,1.80
2023-04-02T10:41:33.202Z,1.93
2023-04-02T10:43:47.860Z,2.10
2023-04-02T10:45:55.590Z,1.80
2023-04-02T10:48:05.733Z,2.00
2023-04-02T10:50:29.494Z,1.90
2023-04-02T10:52:39.726Z,2.10
2023-04-02T10:54:48.201Z,1.93
2023-04-02T10:56:53.833Z,2.20
2023-04-02T10:59:03.323Z,2.30
2023-04-02T11:01:13.332Z,2.20
2023-04-02T11:03:24.346Z,2.20
2023-04-02T11:05:37.093Z,2.33
2023-04-02T11:07:50.785Z,2.20
2023-04-02T11:09:56.618Z,1.60
2023-04-02T11:12:01.758Z,2.03
2023-04-02T11:14:14.389Z,1.90
2023-04-02T11:16:17.624Z,2.30
2023-04-02T11:18:24.354Z,2.20
2023-04-02T11:20:57.314Z,2.50
2023-04-02T11:23:10.751Z,2.20
2023-04-02T11:25:22.955Z,2.00
2023-04-02T11:27:28.919Z,2.40
2023-04-02T11:29:34.509Z,2.23
2023-04-02T11:31:37.510Z,2.40
2023-04-02T11:33:46.165Z,2.47
2023-04-02T11:35:50.258Z,2.30
2023-04-02T11:37:54.249Z,2.23
2023-04-02T11:39:59.204Z,2.40
2023-04-02T11:42:10.034Z,2.20
2023-04-02T11:44:24.101Z,2.40
2023-04-02T11:46:46.831Z,2.33
2023-04-02T11:48:49.683Z,2.10
2023-04-02T11:50:52.761Z,2.40
2023-04-02T11:52:57.423Z,2.30
2023-04-02T11:55:18.921Z,2.40
2023-04-02T11:57:30.600Z,2.40
2023-04-02T11:59:41.118Z,2.30
2023-04-02T12:02:05.162Z,2.43
2023-04-02T12:04:59.007Z,2.50
2023-04-02T12:07:18.767Z,3.63
2023-04-02T12:09:24.452Z,2.60
2023-04-02T12:11:36.279Z,2.40
2023-04-02T12:13:52.531Z,2.83
2023-04-02T12:15:59.270Z,2.20
2023-04-02T12:18:15.270Z,2.70
2023-04-02T12:20:21.797Z,2.50
2023-04-02T12:22:27.673Z,2.73
2023-04-02T12:24:31.376Z,3.03
2023-04-02T12:26:38.076Z,2.70
2023-04-02T12:28:42.177Z,3.00
2023-04-02T12:30:46.238Z,2.87
2023-04-02T12:32:49.588Z,3.20
2023-04-02T12:34:55.671Z,3.00
2023-04-02T12:37:02.477Z,3.27
2023-04-02T12:39:05.257Z,3.33
2023-04-02T12:41:23.907Z,3.23
2023-04-02T12:43:28.639Z,3.23
2023-04-02T12:45:34.096Z,3.13
2023-04-02T12:47:37.002Z,3.60
2023-04-02T12:49:41.613Z,3.30
2023-04-02T12:51:46.075Z,3.20
2023-04-02T12:53:52.667Z,3.53
2023-04-02T12:55:56.153Z,3.80
2023-04-02T12:57:59.918Z,3.90
2023-04-02T13:00:06.224Z,3.90
2023-04-02T13:02:19.836Z,3.63
2023-04-02T13:04:22.604Z,3.80
2023-04-02T13:06:26.879Z,3.73
2023-04-02T13:08:37.961Z,3.50
2023-04-02T13:10:40.852Z,3.67
2023-04-02T13:12:43.665Z,3.93
2023-04-02T13:14:46.624Z,3.77
2023-04-02T13:16:49.746Z,4.03
2023-04-02T13:18:52.927Z,3.43
2023-04-02T13:20:58.162Z,3.20
2023-04-02T13:23:02.930Z,3.43
2023-04-02T13:25:08.641Z,3.17
2023-04-02T13:27:12.151Z,3.30
2023-04-02T13:29:21.878Z,3.13
2023-04-02T13:31:25.009Z,3.17
2023-04-02T13:33:27.910Z,3.20
2023-04-02T13:35:30.962Z,3.10
2023-04-02T13:37:36.859Z,3.10
2023-04-02T13:39:39.834Z,2.83
2023-04-02T13:41:45.763Z,3.10
2023-04-02T13:43:48.506Z,2.70
2023-04-02T13:45:54.154Z,3.20
2023-04-02T13:48:00.791Z,2.60
2023-04-02T13:50:04.426Z,3.07
2023-04-02T13:52:15.198Z,3.10
2023-04-02T13:54:24.645Z,3.63
2023-04-02T13:56:27.781Z,3.17
2023-04-02T13:58:32.168Z,3.30
2023-04-02T14:00:37.478Z,3.63
2023-04-02T14:02:44.379Z,3.90
2023-04-02T14:04:51.299Z,3.90
2023-04-02T14:07:18.278Z,4.10
2023-04-02T14:09:28.545Z,3.77
2023-04-02T14:11:42.619Z,3.80
2023-04-02T14:14:18.989Z,3.70
2023-04-02T14:16:39.612Z,3.87
2023-04-02T14:18:55.848Z,3.50
2023-04-02T14:21:08.141Z,3.57
2023-04-02T14:23:29.026Z,3.20
2023-04-02T14:25:40.872Z,3.67
2023-04-02T14:27:49.608Z,3.50
2023-04-02T14:30:00.656Z,2.90
2023-04-02T14:32:07.590Z,3.10
2023-04-02T14:34:17.887Z,3.57
2023-04-02T14:36:28.020Z,3.40
2023-04-02T14:38:40.420Z,3.30
2023-04-02T14:40:49.488Z,2.67
2023-04-02T14:42:57.173Z,3.10
2023-04-02T14:45:06.159Z,2.93
2023-04-02T14:47:17.297Z,3.17
2023-04-02T14:49:26.445Z,2.83
2023-04-02T14:51:36.930Z,3.00
2023-04-02T14:53:51.402Z,3.13
2023-04-02T14:55:55.835Z,2.57
2023-04-02T14:58:03.480Z,2.80
2023-04-02T15:00:21.650Z,2.90
2023-04-02T15:02:35.310Z,2.90
2023-04-02T15:04:42.200Z,2.97
2023-04-02T15:06:52.338Z,2.60
2023-04-02T15:09:09.395Z,2.50
2023-04-02T15:11:17.923Z,2.33
2023-04-02T15:13:26.251Z,2.47
2023-04-02T15:15:41.281Z,2.40
2023-04-02T15:17:44.145Z,2.90
2023-04-02T15:19:47.649Z,2.83
2023-04-02T15:22:15.622Z,3.67
2023-04-02T15:24:23.812Z,3.17
2023-04-02T15:26:34.782Z,2.90
2023-04-02T15:28:44.598Z,2.77
2023-04-02T15:30:54.247Z,3.00
2023-04-02T15:33:18.266Z,2.80
2023-04-02T15:35:32.380Z,3.03
2023-04-02T15:37:42.260Z,2.60
2023-04-02T15:39:58.259Z,2.90
2023-04-02T15:42:11.349Z,2.70
2023-04-02T15:44:16.452Z,3.20
2023-04-02T15:46:28.387Z,2.87
2023-04-02T15:48:59.346Z,2.93
2023-04-02T15:51:13.464Z,2.87
2023-04-02T15:53:31.038Z,2.60
2023-04-02T15:55:39.095Z,2.90
2023-04-02T15:58:10.136Z,2.90
2023-04-02T16:00:26.451Z,2.80
2023-04-02T16:02:47.350Z,2.70
2023-04-02T16:04:58.270Z,2.90
2023-04-02T16:07:17.588Z,3.10
2023-04-02T16:09:27.994Z,2.80
2023-04-02T16:11:31.162Z,2.90
2023-04-02T16:13:35.605Z,3.03
2023-04-02T16:15:43.410Z,2.90
2023-04-02T16:17:52.257Z,3.10
2023-04-02T16:20:02.273Z,2.77
2023-04-02T16:22:11.846Z,3.23
2023-04-02T16:24:14.649Z,3.63
2023-04-02T16:26:34.269Z,3.23
2023-04-02T16:28:43.585Z,3.40
2023-04-02T16:30:55.915Z,3.43
2023-04-02T16:33:17.114Z,3.40
2023-04-02T16:37:40.826Z,3.17
2023-04-02T16:39:52.016Z,2.90
2023-04-02T16:42:04.519Z,3.67
2023-04-02T16:44:20.544Z,3.50
2023-04-02T16:46:39.597Z,3.30
2023-04-02T16:48:51.487Z,3.50
2023-04-02T16:51:04.163Z,3.37
2023-04-02T16:53:21.588Z,3.10
2023-04-02T16:55:35.717Z,3.13
2023-04-02T16:57:45.583Z,3.30
2023-04-02T17:00:01.765Z,3.10
2023-04-02T17:02:17.221Z,3.23
2023-04-02T17:04:46.117Z,3.20
2023-04-02T17:06:57.867Z,3.30
2023-04-02T17:09:08.915Z,3.03
2023-04-02T17:11:24.455Z,3.40
2023-04-02T17:13:32.940Z,4.13
2023-04-02T17:15:39.406Z,4.10
2023-04-02T17:17:42.326Z,3.30
2023-04-02T17:19:47.617Z,2.80
2023-04-02T17:21:53.625Z,2.87
2023-04-02T17:23:59.426Z,2.60
2023-04-02T17:26:08.209Z,2.90
2023-04-02T17:28:15.860Z,2.83
2023-04-02T17:30:22.914Z,2.90
2023-04-02T17:32:29.603Z,2.60
2023-04-02T17:34:32.815Z,2.63
2023-04-02T17:36:45.932Z,2.80
2023-04-02T17:38:59.820Z,2.80
2023-04-02T17:41:08.845Z,2.90
2023-04-02T17:43:19.208Z,2.70
2023-04-02T17:45:29.215Z,2.43
2023-04-02T17:47:40.671Z,2.80
2023-04-02T17:49:50.647Z,3.00
2023-04-02T17:52:00.122Z,2.60
2023-04-02T17:54:17.304Z,2.53
2023-04-02T17:56:33.268Z,2.80
2023-04-02T17:58:59.904Z,2.70
2023-04-02T18:01:10.638Z,2.83
2023-04-02T18:03:30.045Z,2.57
2023-04-02T18:05:43.310Z,2.53
2023-04-02T18:07:54.966Z,2.70
2023-04-02T18:10:05.598Z,2.47
2023-04-02T18:12:24.292Z,2.73
2023-04-02T18:14:39.575Z,2.33
2023-04-02T18:16:52.733Z,2.37
2023-04-02T18:19:10.708Z,2.40
2023-04-02T18:21:22.824Z,2.37
2023-04-02T18:23:37.735Z,2.40
2023-04-02T18:25:52.131Z,2.20
2023-04-02T18:28:09.551Z,2.40
2023-04-02T18:30:19.786Z,2.40
2023-04-02T18:32:49.178Z,2.40
2023-04-02T18:35:02.317Z,2.50
2023-04-02T18:37:15.900Z,2.23
2023-04-02T18:39:27.002Z,2.00
2023-04-02T18:41:45.670Z,2.30
2023-04-02T18:44:02.273Z,2.53
2023-04-02T18:46:09.707Z,2.47
2023-04-02T18:48:28.846Z,2.10
2023-04-02T18:50:35.578Z,2.27
2023-04-02T18:52:40.569Z,2.10
2023-04-02T18:54:49.055Z,2.37
2023-04-02T18:56:54.255Z,2.43
2023-04-02T18:59:02.369Z,2.63
2023-04-02T19:01:07.579Z,2.37
2023-04-02T19:03:17.744Z,2.20
2023-04-02T19:05:27.099Z,2.00
2023-04-02T19:07:31.931Z,2.17
2023-04-02T19:09:40.296Z,2.23
2023-04-02T19:11:44.452Z,2.30
2023-04-02T19:13:48.290Z,2.27
2023-04-02T19:16:09.028Z,2.40
2023-04-02T19:18:20.208Z,2.47
2023-04-02T19:20:34.295Z,2.40
2023-04-02T19:22:48.285Z,2.17
2023-04-02T19:25:05.130Z,2.10
2023-04-02T19:27:17.718Z,1.77
2023-04-02T19:29:34.515Z,2.17
2023-04-02T19:31:47.591Z,2.50
2023-04-02T19:33:53.945Z,2.10
2023-04-02T19:36:00.199Z,1.87
2023-04-02T19:38:20.280Z,2.00
2023-04-02T19:40:36.947Z,2.10
2023-04-02T19:42:47.180Z,2.30
2023-04-02T19:44:52.345Z,3.47
2023-04-02T19:46:55.605Z,4.90
2023-04-02T19:49:05.342Z,6.27
2023-04-02T19:51:09.249Z,6.60
2023-04-02T19:53:14.417Z,5.23
2023-04-02T19:55:17.474Z,3.73
2023-04-02T19:57:20.394Z,3.20
2023-04-02T19:59:24.971Z,3.77
2023-04-02T20:01:28.491Z,3.17
2023-04-02T20:03:32.411Z,3.00
2023-04-02T20:05:35.756Z,3.00
2023-04-02T20:07:38.799Z,2.80
2023-04-02T20:09:41.694Z,3.20
2023-04-02T20:11:44.687Z,4.27
2023-04-02T20:13:48.714Z,4.87
2023-04-02T20:15:53.062Z,4.17
2023-04-02T20:17:56.276Z,3.67
2023-04-02T20:19:59.441Z,3.27
2023-04-02T20:22:02.374Z,2.80
2023-04-02T20:24:06.000Z,2.63
2023-04-02T20:26:09.619Z,2.30
2023-04-02T20:28:12.634Z,2.40
2023-04-02T20:30:16.549Z,3.03
2023-04-02T20:32:20.823Z,2.87
2023-04-02T20:34:24.309Z,2.47
2023-04-02T20:36:27.509Z,2.50
2023-04-02T20:38:31.513Z,2.23
2023-04-02T20:40:35.458Z,2.50
2023-04-02T20:42:38.570Z,2.23
2023-04-02T20:44:42.059Z,2.20
2023-04-02T20:46:44.942Z,2.00
2023-04-02T20:48:49.299Z,2.00
2023-04-02T20:50:52.709Z,2.20
2023-04-02T20:52:56.414Z,2.40
2023-04-02T20:54:59.380Z,3.10
2023-04-02T20:57:02.605Z,2.92
2023-04-02T20:59:05.590Z,2.73
2023-04-02T21:01:10.952Z,3.43
2023-04-02T21:03:13.908Z,3.07
2023-04-02T21:05:18.254Z,3.37
2023-04-02T21:07:21.205Z,3.83
2023-04-02T21:09:24.616Z,4.80
2023-04-02T21:11:27.578Z,4.67
2023-04-02T21:13:31.653Z,5.37
2023-04-02T21:15:34.858Z,5.50
2023-04-02T21:17:38.058Z,4.63
2023-04-02T21:19:42.795Z,4.43
2023-04-02T21:21:47.252Z,3.47
2023-04-02T21:23:56.123Z,2.93
2023-04-02T21:26:02.905Z,2.70
2023-04-02T21:28:06.019Z,3.30
2023-04-02T21:30:10.020Z,3.07
2023-04-02T21:32:21.229Z,3.27
2023-04-02T21:34:24.555Z,3.63
2023-04-02T21:36:29.267Z,3.67
2023-04-02T21:38:33.750Z,3.23
2023-04-02T21:40:36.681Z,3.33
2023-04-02T21:42:39.676Z,3.43
2023-04-02T21:44:42.545Z,2.90
2023-04-02T21:46:46.345Z,3.53
2023-04-02T21:48:49.972Z,2.80
2023-04-02T21:50:52.930Z,2.70
2023-04-02T21:52:55.959Z,3.37
2023-04-02T21:55:00.404Z,2.77
2023-04-02T21:57:03.585Z,2.97
2023-04-02T21:59:09.306Z,3.20
2023-04-02T22:01:23.793Z,2.90
2023-04-02T22:03:32.118Z,2.77
2023-04-02T22:05:35.564Z,2.47
2023-04-02T22:07:38.709Z,2.40
2023-04-02T22:09:41.688Z,2.17
2023-04-02T22:11:49.652Z,2.17
2023-04-02T22:13:52.989Z,2.40
2023-04-02T22:16:01.321Z,2.20
2023-04-02T22:18:04.492Z,2.63
2023-04-02T22:20:10.765Z,2.20
2023-04-02T22:22:13.798Z,2.70
2023-04-02T22:24:20.421Z,2.40
2023-04-02T22:26:24.536Z,2.40
2023-04-02T22:28:29.493Z,2.30
2023-04-02T22:30:35.433Z,2.10
2023-04-02T22:32:40.161Z,2.17
2023-04-02T22:34:45.768Z,2.20
2023-04-02T22:36:48.657Z,2.40
2023-04-02T22:38:51.900Z,2.23
2023-04-02T22:41:04.397Z,2.40
2023-04-02T22:43:07.272Z,2.60
2023-04-02T22:45:12.649Z,2.20
2023-04-02T22:47:15.716Z,2.60
2023-04-02T22:49:19.381Z,2.57
2023-04-02T22:51:23.558Z,2.47
2023-04-02T22:53:26.683Z,2.07
2023-04-02T22:55:29.795Z,2.20
2023-04-02T22:57:32.816Z,2.77
2023-04-02T22:59:35.908Z,2.80
2023-04-02T23:01:40.694Z,2.60
2023-04-02T23:03:43.998Z,2.40
2023-04-02T23:05:58.172Z,2.30
2023-04-02T23:08:01.480Z,2.50
2023-04-02T23:10:05.856Z,2.80
2023-04-02T23:12:08.966Z,2.37
2023-04-02T23:14:13.317Z,2.30
2023-04-02T23:16:17.459Z,2.50
2023-04-02T23:18:21.827Z,2.50
2023-04-02T23:20:24.785Z,2.97
2023-04-02T23:22:27.677Z,2.80
2023-04-02T23:24:30.588Z,2.80
2023-04-02T23:26:33.786Z,2.70
2023-04-02T23:28:37.730Z,3.07
2023-04-02T23:30:42.104Z,3.20
2023-04-02T23:32:46.418Z,3.00
2023-04-02T23:34:51.152Z,2.80
2023-04-02T23:36:54.010Z,3.30
2023-04-02T23:38:59.678Z,3.77
2023-04-02T23:41:02.575Z,3.20
2023-04-02T23:43:05.485Z,3.30
2023-04-02T23:45:09.299Z,2.80
2023-04-02T23:47:12.397Z,3.23
2023-04-02T23:49:15.469Z,2.77
2023-04-02T23:51:19.890Z,2.80
2023-04-02T23:53:22.838Z,2.90
2023-04-02T23:55:25.944Z,2.93
2023-04-02T23:57:28.886Z,2.50
2023-04-02T23:59:31.777Z,2.73
